sensor_id;sensor_type;location;lat;lon;timestamp;temperature;humidity
46458;DHT22;32155;54.076;12.092;2023-02-23T00:01:16;4.90;99.90
46458;DHT22;32155;54.076;12.092;2023-02-23T00:03:46;4.90;99.90
46458;DHT22;32155;54.076;12.092;2023-02-23T00:06:14;4.80;99.90
46458;DHT22;32155;54.076;12.092;2023-02-23T00:08:40;4.80;99.90
46458;DHT22;32155;54.076;12.092;2023-02-23T00:11:09;4.80;99.90
46458;DHT22;32155;54.076;12.092;2023-02-23T00:13:38;4.80;99.90
46458;DHT22;32155;54.076;12.092;2023-02-23T00:16:16;4.80;99.90
46458;DHT22;32155;54.076;12.092;2023-02-23T00:18:47;4.80;99.90
46458;DHT22;32155;54.076;12.092;2023-02-23T00:21:23;4.80;99.90
46458;DHT22;32155;54.076;12.092;2023-02-23T00:23:57;4.80;99.90
46458;DHT22;32155;54.076;12.092;2023-02-23T00:26:26;4.80;99.90
46458;DHT22;32155;54.076;12.092;2023-02-23T00:28:55;4.80;99.90
46458;DHT22;32155;54.076;12.092;2023-02-23T00:31:22;4.80;99.90
46458;DHT22;32155;54.076;12.092;2023-02-23T00:33:51;4.70;99.90
46458;DHT22;32155;54.076;12.092;2023-02-23T00:36:20;4.70;99.90
46458;DHT22;32155;54.076;12.092;2023-02-23T00:38:46;4.70;99.90
46458;DHT22;32155;54.076;12.092;2023-02-23T00:41:14;4.70;99.90
46458;DHT22;32155;54.076;12.092;2023-02-23T00:43:45;4.70;99.90
46458;DHT22;32155;54.076;12.092;2023-02-23T00:46:18;4.60;99.90
46458;DHT22;32155;54.076;12.092;2023-02-23T00:48:46;4.60;99.90
46458;DHT22;32155;54.076;12.092;2023-02-23T00:51:13;4.60;99.90
46458;DHT22;32155;54.076;12.092;2023-02-23T00:53:42;4.70;99.90
46458;DHT22;32155;54.076;12.092;2023-02-23T00:56:10;4.70;99.90
46458;DHT22;32155;54.076;12.092;2023-02-23T00:58:36;4.70;99.90
46458;DHT22;32155;54.076;12.092;2023-02-23T01:01:07;4.70;99.90
46458;DHT22;32155;54.076;12.092;2023-02-23T01:03:33;4.70;99.90
46458;DHT22;32155;54.076;12.092;2023-02-23T01:06:00;4.70;99.90
46458;DHT22;32155;54.076;12.092;2023-02-23T01:08:29;4.70;99.90
46458;DHT22;32155;54.076;12.092;2023-02-23T01:10:55;4.70;99.90
46458;DHT22;32155;54.076;12.092;2023-02-23T01:13:22;4.70;99.90
46458;DHT22;32155;54.076;12.092;2023-02-23T01:15:51;4.70;99.90
46458;DHT22;32155;54.076;12.092;2023-02-23T01:18:19;4.70;99.90
46458;DHT22;32155;54.076;12.092;2023-02-23T01:20:46;4.70;99.90
46458;DHT22;32155;54.076;12.092;2023-02-23T01:23:15;4.70;99.90
46458;DHT22;32155;54.076;12.092;2023-02-23T01:25:42;4.80;99.90
46458;DHT22;32155;54.076;12.092;2023-02-23T01:28:12;4.80;99.90
46458;DHT22;32155;54.076;12.092;2023-02-23T01:30:39;4.80;99.90
46458;DHT22;32155;54.076;12.092;2023-02-23T01:33:05;4.70;99.90
46458;DHT22;32155;54.076;12.092;2023-02-23T01:35:34;4.70;99.90
46458;DHT22;32155;54.076;12.092;2023-02-23T01:38:00;4.70;99.90
46458;DHT22;32155;54.076;12.092;2023-02-23T01:40:28;4.70;99.90
46458;DHT22;32155;54.076;12.092;2023-02-23T01:43:20;4.70;99.90
46458;DHT22;32155;54.076;12.092;2023-02-23T01:45:54;4.70;99.90
46458;DHT22;32155;54.076;12.092;2023-02-23T01:48:27;4.70;99.90
46458;DHT22;32155;54.076;12.092;2023-02-23T01:53:26;4.70;99.90
46458;DHT22;32155;54.076;12.092;2023-02-23T01:55:56;4.70;99.90
46458;DHT22;32155;54.076;12.092;2023-02-23T01:58:23;4.70;99.90
46458;DHT22;32155;54.076;12.092;2023-02-23T02:00:57;4.70;99.90
46458;DHT22;32155;54.076;12.092;2023-02-23T02:04:00;4.70;99.90
46458;DHT22;32155;54.076;12.092;2023-02-23T02:06:23;4.60;99.90
46458;DHT22;32155;54.076;12.092;2023-02-23T02:08:56;4.60;99.90
46458;DHT22;32155;54.076;12.092;2023-02-23T02:11:23;4.60;99.90
46458;DHT22;32155;54.076;12.092;2023-02-23T02:14:16;4.60;99.90
46458;DHT22;32155;54.076;12.092;2023-02-23T02:22:54;4.60;99.90
46458;DHT22;32155;54.076;12.092;2023-02-23T02:42:32;4.50;99.90
46458;DHT22;32155;54.076;12.092;2023-02-23T02:45:09;4.50;99.90
46458;DHT22;32155;54.076;12.092;2023-02-23T02:47:48;4.50;99.90
46458;DHT22;32155;54.076;12.092;2023-02-23T02:50:44;4.50;99.90
46458;DHT22;32155;54.076;12.092;2023-02-23T02:53:20;4.50;99.90
46458;DHT22;32155;54.076;12.092;2023-02-23T02:55:48;4.50;99.90
46458;DHT22;32155;54.076;12.092;2023-02-23T02:58:16;4.50;99.90
46458;DHT22;32155;54.076;12.092;2023-02-23T03:00:46;4.50;99.90
46458;DHT22;32155;54.076;12.092;2023-02-23T03:03:35;4.40;99.90
46458;DHT22;32155;54.076;12.092;2023-02-23T03:06:32;4.30;99.90
46458;DHT22;32155;54.076;12.092;2023-02-23T03:18:47;4.20;99.90
46458;DHT22;32155;54.076;12.092;2023-02-23T03:21:44;4.20;99.90
46458;DHT22;32155;54.076;12.092;2023-02-23T03:27:35;4.30;99.90
46458;DHT22;32155;54.076;12.092;2023-02-23T03:30:36;4.20;99.90
46458;DHT22;32155;54.076;12.092;2023-02-23T03:33:31;4.30;99.90
46458;DHT22;32155;54.076;12.092;2023-02-23T03:36:22;4.30;99.90
46458;DHT22;32155;54.076;12.092;2023-02-23T03:42:10;4.30;99.90
46458;DHT22;32155;54.076;12.092;2023-02-23T03:44:56;4.30;99.90
46458;DHT22;32155;54.076;12.092;2023-02-23T03:47:41;4.30;99.90
46458;DHT22;32155;54.076;12.092;2023-02-23T03:50:32;4.30;99.90
46458;DHT22;32155;54.076;12.092;2023-02-23T03:53:25;4.30;99.90
46458;DHT22;32155;54.076;12.092;2023-02-23T03:56:12;4.20;99.90
46458;DHT22;32155;54.076;12.092;2023-02-23T03:59:00;4.20;99.90
46458;DHT22;32155;54.076;12.092;2023-02-23T04:01:50;4.10;99.90
46458;DHT22;32155;54.076;12.092;2023-02-23T04:04:37;4.20;99.90
46458;DHT22;32155;54.076;12.092;2023-02-23T04:07:22;4.20;99.90
46458;DHT22;32155;54.076;12.092;2023-02-23T04:10:08;4.20;99.90
46458;DHT22;32155;54.076;12.092;2023-02-23T04:15:48;4.30;99.90
46458;DHT22;32155;54.076;12.092;2023-02-23T04:18:17;4.20;99.90
46458;DHT22;32155;54.076;12.092;2023-02-23T04:20:44;4.30;99.90
46458;DHT22;32155;54.076;12.092;2023-02-23T04:23:10;4.30;99.90
46458;DHT22;32155;54.076;12.092;2023-02-23T04:25:36;4.30;99.90
46458;DHT22;32155;54.076;12.092;2023-02-23T04:28:02;4.30;99.90
46458;DHT22;32155;54.076;12.092;2023-02-23T04:30:28;4.30;99.90
46458;DHT22;32155;54.076;12.092;2023-02-23T04:32:55;4.30;99.90
46458;DHT22;32155;54.076;12.092;2023-02-23T04:35:21;4.30;99.90
46458;DHT22;32155;54.076;12.092;2023-02-23T04:37:47;4.30;99.90
46458;DHT22;32155;54.076;12.092;2023-02-23T04:40:13;4.40;99.90
46458;DHT22;32155;54.076;12.092;2023-02-23T04:42:39;4.40;99.90
46458;DHT22;32155;54.076;12.092;2023-02-23T04:45:06;4.40;99.90
46458;DHT22;32155;54.076;12.092;2023-02-23T04:47:32;4.40;99.90
46458;DHT22;32155;54.076;12.092;2023-02-23T04:50:01;4.40;99.90
46458;DHT22;32155;54.076;12.092;2023-02-23T04:52:27;4.40;99.90
46458;DHT22;32155;54.076;12.092;2023-02-23T04:54:53;4.40;99.90
46458;DHT22;32155;54.076;12.092;2023-02-23T04:57:18;4.40;99.90
46458;DHT22;32155;54.076;12.092;2023-02-23T04:59:46;4.40;99.90
46458;DHT22;32155;54.076;12.092;2023-02-23T05:02:14;4.40;99.90
46458;DHT22;32155;54.076;12.092;2023-02-23T05:04:39;4.40;99.90
46458;DHT22;32155;54.076;12.092;2023-02-23T05:07:05;4.50;99.90
46458;DHT22;32155;54.076;12.092;2023-02-23T05:09:31;4.50;99.90
46458;DHT22;32155;54.076;12.092;2023-02-23T05:11:57;4.50;99.90
46458;DHT22;32155;54.076;12.092;2023-02-23T05:14:23;4.60;99.90
46458;DHT22;32155;54.076;12.092;2023-02-23T05:16:49;4.60;99.90
46458;DHT22;32155;54.076;12.092;2023-02-23T05:19:15;4.70;99.90
46458;DHT22;32155;54.076;12.092;2023-02-23T05:21:41;4.70;99.90
46458;DHT22;32155;54.076;12.092;2023-02-23T05:24:07;4.80;99.90
46458;DHT22;32155;54.076;12.092;2023-02-23T05:26:33;4.80;99.90
46458;DHT22;32155;54.076;12.092;2023-02-23T05:28:59;4.80;99.90
46458;DHT22;32155;54.076;12.092;2023-02-23T05:31:24;4.70;99.90
46458;DHT22;32155;54.076;12.092;2023-02-23T05:33:53;4.70;99.90
46458;DHT22;32155;54.076;12.092;2023-02-23T05:36:19;4.60;99.90
46458;DHT22;32155;54.076;12.092;2023-02-23T05:38:48;4.70;99.90
46458;DHT22;32155;54.076;12.092;2023-02-23T05:41:18;4.70;99.90
46458;DHT22;32155;54.076;12.092;2023-02-23T05:43:46;4.70;99.90
46458;DHT22;32155;54.076;12.092;2023-02-23T05:46:15;4.70;99.90
46458;DHT22;32155;54.076;12.092;2023-02-23T05:48:42;4.70;99.90
46458;DHT22;32155;54.076;12.092;2023-02-23T05:51:10;4.80;99.90
46458;DHT22;32155;54.076;12.092;2023-02-23T05:53:39;4.80;99.90
46458;DHT22;32155;54.076;12.092;2023-02-23T05:56:07;4.80;99.90
46458;DHT22;32155;54.076;12.092;2023-02-23T05:58:36;4.80;99.90
46458;DHT22;32155;54.076;12.092;2023-02-23T06:01:02;4.80;99.90
46458;DHT22;32155;54.076;12.092;2023-02-23T06:03:28;4.70;99.90
46458;DHT22;32155;54.076;12.092;2023-02-23T06:05:56;4.70;99.90
46458;DHT22;32155;54.076;12.092;2023-02-23T06:08:22;4.70;99.90
46458;DHT22;32155;54.076;12.092;2023-02-23T06:10:51;4.60;99.90
46458;DHT22;32155;54.076;12.092;2023-02-23T06:13:17;4.60;99.90
46458;DHT22;32155;54.076;12.092;2023-02-23T06:15:43;4.50;99.90
46458;DHT22;32155;54.076;12.092;2023-02-23T06:18:11;4.50;99.90
46458;DHT22;32155;54.076;12.092;2023-02-23T06:20:37;4.40;99.90
46458;DHT22;32155;54.076;12.092;2023-02-23T06:23:06;4.40;99.90
46458;DHT22;32155;54.076;12.092;2023-02-23T06:25:32;4.30;99.90
46458;DHT22;32155;54.076;12.092;2023-02-23T06:28:00;4.30;99.90
46458;DHT22;32155;54.076;12.092;2023-02-23T06:30:26;4.30;99.90
46458;DHT22;32155;54.076;12.092;2023-02-23T06:32:51;4.20;99.90
46458;DHT22;32155;54.076;12.092;2023-02-23T06:35:17;4.20;99.90
46458;DHT22;32155;54.076;12.092;2023-02-23T06:37:43;4.30;99.90
46458;DHT22;32155;54.076;12.092;2023-02-23T06:40:11;4.30;99.90
46458;DHT22;32155;54.076;12.092;2023-02-23T06:42:37;4.40;99.90
46458;DHT22;32155;54.076;12.092;2023-02-23T06:45:03;4.40;99.90
46458;DHT22;32155;54.076;12.092;2023-02-23T06:47:29;4.40;99.90
46458;DHT22;32155;54.076;12.092;2023-02-23T06:49:55;4.40;99.90
46458;DHT22;32155;54.076;12.092;2023-02-23T06:52:20;4.40;99.90
46458;DHT22;32155;54.076;12.092;2023-02-23T06:54:47;4.50;99.90
46458;DHT22;32155;54.076;12.092;2023-02-23T06:57:14;4.40;99.90
46458;DHT22;32155;54.076;12.092;2023-02-23T06:59:43;4.50;99.90
46458;DHT22;32155;54.076;12.092;2023-02-23T07:02:13;4.50;99.90
46458;DHT22;32155;54.076;12.092;2023-02-23T07:04:39;4.60;99.90
46458;DHT22;32155;54.076;12.092;2023-02-23T07:07:05;4.60;99.90
46458;DHT22;32155;54.076;12.092;2023-02-23T07:09:30;4.60;99.90
46458;DHT22;32155;54.076;12.092;2023-02-23T07:11:59;4.60;99.90
46458;DHT22;32155;54.076;12.092;2023-02-23T07:14:24;4.60;99.90
46458;DHT22;32155;54.076;12.092;2023-02-23T07:16:53;4.60;99.90
46458;DHT22;32155;54.076;12.092;2023-02-23T07:19:19;4.60;99.90
46458;DHT22;32155;54.076;12.092;2023-02-23T07:21:45;4.70;99.90
46458;DHT22;32155;54.076;12.092;2023-02-23T07:24:11;4.60;99.90
46458;DHT22;32155;54.076;12.092;2023-02-23T07:26:37;4.60;99.90
46458;DHT22;32155;54.076;12.092;2023-02-23T07:29:05;4.60;99.90
46458;DHT22;32155;54.076;12.092;2023-02-23T07:31:31;4.60;99.90
46458;DHT22;32155;54.076;12.092;2023-02-23T07:33:56;4.60;99.90
46458;DHT22;32155;54.076;12.092;2023-02-23T07:36:22;4.70;99.90
46458;DHT22;32155;54.076;12.092;2023-02-23T07:38:48;4.70;99.90
46458;DHT22;32155;54.076;12.092;2023-02-23T07:41:14;4.70;99.90
46458;DHT22;32155;54.076;12.092;2023-02-23T07:43:40;4.80;99.90
46458;DHT22;32155;54.076;12.092;2023-02-23T07:46:06;4.90;99.90
46458;DHT22;32155;54.076;12.092;2023-02-23T07:48:33;5.00;99.90
46458;DHT22;32155;54.076;12.092;2023-02-23T07:51:08;5.00;99.90
46458;DHT22;32155;54.076;12.092;2023-02-23T07:53:33;4.90;99.90
46458;DHT22;32155;54.076;12.092;2023-02-23T07:55:59;5.00;99.90
46458;DHT22;32155;54.076;12.092;2023-02-23T07:58:28;5.00;99.90
46458;DHT22;32155;54.076;12.092;2023-02-23T08:00:55;5.10;99.90
46458;DHT22;32155;54.076;12.092;2023-02-23T08:03:21;5.10;99.90
46458;DHT22;32155;54.076;12.092;2023-02-23T08:05:47;5.10;99.90
46458;DHT22;32155;54.076;12.092;2023-02-23T08:08:12;5.20;99.90
46458;DHT22;32155;54.076;12.092;2023-02-23T08:10:40;5.20;99.90
46458;DHT22;32155;54.076;12.092;2023-02-23T08:13:06;5.20;99.90
46458;DHT22;32155;54.076;12.092;2023-02-23T08:15:32;5.20;99.90
46458;DHT22;32155;54.076;12.092;2023-02-23T08:17:58;5.20;99.90
46458;DHT22;32155;54.076;12.092;2023-02-23T08:20:23;5.30;99.90
46458;DHT22;32155;54.076;12.092;2023-02-23T08:22:53;5.30;99.90
46458;DHT22;32155;54.076;12.092;2023-02-23T08:25:19;5.30;99.90
46458;DHT22;32155;54.076;12.092;2023-02-23T08:27:48;5.40;99.90
46458;DHT22;32155;54.076;12.092;2023-02-23T08:30:16;5.50;99.90
46458;DHT22;32155;54.076;12.092;2023-02-23T08:32:46;5.50;99.90
46458;DHT22;32155;54.076;12.092;2023-02-23T08:35:11;5.50;99.90
46458;DHT22;32155;54.076;12.092;2023-02-23T08:37:37;5.50;99.90
46458;DHT22;32155;54.076;12.092;2023-02-23T08:40:07;5.60;99.90
46458;DHT22;32155;54.076;12.092;2023-02-23T08:42:35;5.50;99.90
46458;DHT22;32155;54.076;12.092;2023-02-23T08:45:03;5.50;99.90
46458;DHT22;32155;54.076;12.092;2023-02-23T08:47:31;5.50;99.90
46458;DHT22;32155;54.076;12.092;2023-02-23T08:49:59;5.60;99.90
46458;DHT22;32155;54.076;12.092;2023-02-23T08:52:24;5.80;99.90
46458;DHT22;32155;54.076;12.092;2023-02-23T08:54:53;5.90;99.90
46458;DHT22;32155;54.076;12.092;2023-02-23T08:57:19;5.90;99.90
46458;DHT22;32155;54.076;12.092;2023-02-23T08:59:45;6.00;99.90
46458;DHT22;32155;54.076;12.092;2023-02-23T09:02:13;6.10;99.90
46458;DHT22;32155;54.076;12.092;2023-02-23T09:04:39;6.10;99.90
46458;DHT22;32155;54.076;12.092;2023-02-23T09:07:13;6.10;99.90
46458;DHT22;32155;54.076;12.092;2023-02-23T09:09:38;5.90;99.90
46458;DHT22;32155;54.076;12.092;2023-02-23T09:12:04;6.00;99.90
46458;DHT22;32155;54.076;12.092;2023-02-23T09:14:32;5.90;99.90
46458;DHT22;32155;54.076;12.092;2023-02-23T09:16:58;5.90;99.90
46458;DHT22;32155;54.076;12.092;2023-02-23T09:19:24;6.00;99.90
46458;DHT22;32155;54.076;12.092;2023-02-23T09:21:52;6.10;99.90
46458;DHT22;32155;54.076;12.092;2023-02-23T09:24:20;6.10;99.90
46458;DHT22;32155;54.076;12.092;2023-02-23T09:26:46;6.20;99.90
46458;DHT22;32155;54.076;12.092;2023-02-23T09:29:14;6.40;99.90
46458;DHT22;32155;54.076;12.092;2023-02-23T09:31:40;6.50;99.90
46458;DHT22;32155;54.076;12.092;2023-02-23T09:34:08;6.80;99.90
46458;DHT22;32155;54.076;12.092;2023-02-23T09:36:34;6.90;99.90
46458;DHT22;32155;54.076;12.092;2023-02-23T15:40:25;8.30;99.90
46458;DHT22;32155;54.076;12.092;2023-02-23T15:42:56;8.30;99.90
46458;DHT22;32155;54.076;12.092;2023-02-23T15:45:34;8.30;99.90
46458;DHT22;32155;54.076;12.092;2023-02-23T15:48:10;8.20;99.90
46458;DHT22;32155;54.076;12.092;2023-02-23T15:50:43;8.20;99.90
46458;DHT22;32155;54.076;12.092;2023-02-23T15:53:34;8.20;99.90
46458;DHT22;32155;54.076;12.092;2023-02-23T15:56:13;8.10;99.90
46458;DHT22;32155;54.076;12.092;2023-02-23T15:58:47;8.20;99.90
46458;DHT22;32155;54.076;12.092;2023-02-23T16:01:28;8.20;99.90
46458;DHT22;32155;54.076;12.092;2023-02-23T16:06:48;8.20;99.90
46458;DHT22;32155;54.076;12.092;2023-02-23T16:11:49;8.10;99.90
46458;DHT22;32155;54.076;12.092;2023-02-23T16:14:19;8.00;99.90
46458;DHT22;32155;54.076;12.092;2023-02-23T16:16:46;8.10;99.90
46458;DHT22;32155;54.076;12.092;2023-02-23T16:19:17;8.10;99.90
46458;DHT22;32155;54.076;12.092;2023-02-23T16:21:52;8.10;99.90
46458;DHT22;32155;54.076;12.092;2023-02-23T16:24:23;8.10;99.90
46458;DHT22;32155;54.076;12.092;2023-02-23T16:29:38;8.00;99.90
46458;DHT22;32155;54.076;12.092;2023-02-23T16:32:19;8.00;99.90
46458;DHT22;32155;54.076;12.092;2023-02-23T16:34:59;8.00;99.90
46458;DHT22;32155;54.076;12.092;2023-02-23T16:37:26;8.00;99.90
46458;DHT22;32155;54.076;12.092;2023-02-23T16:39:53;7.90;99.90
46458;DHT22;32155;54.076;12.092;2023-02-23T16:44:47;7.90;99.90
46458;DHT22;32155;54.076;12.092;2023-02-23T16:49:49;7.90;99.90
46458;DHT22;32155;54.076;12.092;2023-02-23T16:52:20;7.90;99.90
46458;DHT22;32155;54.076;12.092;2023-02-23T16:54:50;8.00;99.90
46458;DHT22;32155;54.076;12.092;2023-02-23T16:57:23;7.90;99.90
46458;DHT22;32155;54.076;12.092;2023-02-23T16:59:50;7.90;99.90
46458;DHT22;32155;54.076;12.092;2023-02-23T17:02:20;7.90;99.90
46458;DHT22;32155;54.076;12.092;2023-02-23T17:04:52;7.90;99.90
46458;DHT22;32155;54.076;12.092;2023-02-23T17:07:23;8.00;99.90
46458;DHT22;32155;54.076;12.092;2023-02-23T17:09:51;7.90;99.90
46458;DHT22;32155;54.076;12.092;2023-02-23T17:12:17;7.90;99.90
46458;DHT22;32155;54.076;12.092;2023-02-23T17:14:44;7.90;99.90
46458;DHT22;32155;54.076;12.092;2023-02-23T17:17:15;7.80;99.90
46458;DHT22;32155;54.076;12.092;2023-02-23T17:19:41;7.70;99.90
46458;DHT22;32155;54.076;12.092;2023-02-23T17:22:08;7.70;99.90
46458;DHT22;32155;54.076;12.092;2023-02-23T17:24:34;7.70;99.90
46458;DHT22;32155;54.076;12.092;2023-02-23T17:26:59;7.70;99.90
46458;DHT22;32155;54.076;12.092;2023-02-23T17:29:27;7.70;99.90
46458;DHT22;32155;54.076;12.092;2023-02-23T17:31:55;7.70;99.90
46458;DHT22;32155;54.076;12.092;2023-02-23T17:34:27;7.60;99.90
46458;DHT22;32155;54.076;12.092;2023-02-23T17:36:53;7.60;99.90
46458;DHT22;32155;54.076;12.092;2023-02-23T17:39:21;7.60;99.90
46458;DHT22;32155;54.076;12.092;2023-02-23T17:41:52;7.60;99.90
46458;DHT22;32155;54.076;12.092;2023-02-23T17:44:18;7.60;99.90
46458;DHT22;32155;54.076;12.092;2023-02-23T17:46:44;7.60;99.90
46458;DHT22;32155;54.076;12.092;2023-02-23T17:49:10;7.50;99.90
46458;DHT22;32155;54.076;12.092;2023-02-23T17:51:35;7.60;99.90
46458;DHT22;32155;54.076;12.092;2023-02-23T17:54:01;7.50;99.90
46458;DHT22;32155;54.076;12.092;2023-02-23T17:56:27;7.50;99.90
46458;DHT22;32155;54.076;12.092;2023-02-23T17:59:00;7.40;99.90
46458;DHT22;32155;54.076;12.092;2023-02-23T18:01:26;7.50;99.90
46458;DHT22;32155;54.076;12.092;2023-02-23T18:03:54;7.50;99.90
46458;DHT22;32155;54.076;12.092;2023-02-23T18:06:22;7.50;99.90
46458;DHT22;32155;54.076;12.092;2023-02-23T18:08:48;7.50;99.90
46458;DHT22;32155;54.076;12.092;2023-02-23T18:11:16;7.50;99.90
46458;DHT22;32155;54.076;12.092;2023-02-23T18:13:47;7.50;99.90
46458;DHT22;32155;54.076;12.092;2023-02-23T18:16:16;7.40;99.90
46458;DHT22;32155;54.076;12.092;2023-02-23T18:18:44;7.40;99.90
46458;DHT22;32155;54.076;12.092;2023-02-23T18:21:13;7.40;99.90
46458;DHT22;32155;54.076;12.092;2023-02-23T18:23:42;7.40;99.90
46458;DHT22;32155;54.076;12.092;2023-02-23T18:26:10;7.40;99.90
46458;DHT22;32155;54.076;12.092;2023-02-23T18:28:36;7.30;99.90
46458;DHT22;32155;54.076;12.092;2023-02-23T18:31:05;7.30;99.90
46458;DHT22;32155;54.076;12.092;2023-02-23T18:33:31;7.30;99.90
46458;DHT22;32155;54.076;12.092;2023-02-23T18:36:11;7.20;99.90
46458;DHT22;32155;54.076;12.092;2023-02-23T18:38:39;7.20;99.90
46458;DHT22;32155;54.076;12.092;2023-02-23T18:41:05;7.20;99.90
46458;DHT22;32155;54.076;12.092;2023-02-23T18:43:33;7.20;99.90
46458;DHT22;32155;54.076;12.092;2023-02-23T18:46:10;7.10;99.90
46458;DHT22;32155;54.076;12.092;2023-02-23T18:48:36;7.10;99.90
46458;DHT22;32155;54.076;12.092;2023-02-23T18:51:03;7.00;99.90
46458;DHT22;32155;54.076;12.092;2023-02-23T18:53:35;7.00;99.90
46458;DHT22;32155;54.076;12.092;2023-02-23T18:56:10;6.80;99.90
46458;DHT22;32155;54.076;12.092;2023-02-23T18:58:36;6.80;99.90
46458;DHT22;32155;54.076;12.092;2023-02-23T19:01:12;6.70;99.90
46458;DHT22;32155;54.076;12.092;2023-02-23T19:03:45;6.70;99.90
46458;DHT22;32155;54.076;12.092;2023-02-23T19:06:12;6.60;99.90
46458;DHT22;32155;54.076;12.092;2023-02-23T19:08:41;6.60;99.90
46458;DHT22;32155;54.076;12.092;2023-02-23T19:11:07;6.60;99.90
46458;DHT22;32155;54.076;12.092;2023-02-23T19:13:33;6.60;99.90
46458;DHT22;32155;54.076;12.092;2023-02-23T19:16:08;6.60;99.90
46458;DHT22;32155;54.076;12.092;2023-02-23T19:18:39;6.50;99.90
46458;DHT22;32155;54.076;12.092;2023-02-23T19:21:07;6.50;99.90
46458;DHT22;32155;54.076;12.092;2023-02-23T19:23:35;6.50;99.90
46458;DHT22;32155;54.076;12.092;2023-02-23T19:26:01;6.50;99.90
46458;DHT22;32155;54.076;12.092;2023-02-23T19:28:27;6.40;99.90
46458;DHT22;32155;54.076;12.092;2023-02-23T19:31:05;6.40;99.90
46458;DHT22;32155;54.076;12.092;2023-02-23T19:33:31;6.40;99.90
46458;DHT22;32155;54.076;12.092;2023-02-23T19:36:02;6.40;99.90
46458;DHT22;32155;54.076;12.092;2023-02-23T19:38:29;6.40;99.90
46458;DHT22;32155;54.076;12.092;2023-02-23T19:40:54;6.30;99.90
46458;DHT22;32155;54.076;12.092;2023-02-23T19:43:22;6.30;99.90
46458;DHT22;32155;54.076;12.092;2023-02-23T19:45:47;6.30;99.90
46458;DHT22;32155;54.076;12.092;2023-02-23T19:48:13;6.20;99.90
46458;DHT22;32155;54.076;12.092;2023-02-23T19:50:47;6.10;99.90
46458;DHT22;32155;54.076;12.092;2023-02-23T19:53:14;6.20;99.90
46458;DHT22;32155;54.076;12.092;2023-02-23T19:55:41;6.20;99.90
46458;DHT22;32155;54.076;12.092;2023-02-23T19:58:07;6.10;99.90
46458;DHT22;32155;54.076;12.092;2023-02-23T20:00:34;6.00;99.90
46458;DHT22;32155;54.076;12.092;2023-02-23T20:03:00;6.10;99.90
46458;DHT22;32155;54.076;12.092;2023-02-23T20:05:31;6.00;99.90
46458;DHT22;32155;54.076;12.092;2023-02-23T20:07:58;6.00;99.90
46458;DHT22;32155;54.076;12.092;2023-02-23T20:10:23;5.90;99.90
46458;DHT22;32155;54.076;12.092;2023-02-23T20:12:55;6.00;99.90
46458;DHT22;32155;54.076;12.092;2023-02-23T20:15:30;5.90;99.90
46458;DHT22;32155;54.076;12.092;2023-02-23T20:17:57;5.80;99.90
46458;DHT22;32155;54.076;12.092;2023-02-23T20:20:27;5.80;99.90
46458;DHT22;32155;54.076;12.092;2023-02-23T20:23:03;5.80;99.90
46458;DHT22;32155;54.076;12.092;2023-02-23T20:25:35;5.80;99.90
46458;DHT22;32155;54.076;12.092;2023-02-23T20:28:01;5.70;99.90
46458;DHT22;32155;54.076;12.092;2023-02-23T20:30:34;5.60;99.90
46458;DHT22;32155;54.076;12.092;2023-02-23T20:33:05;5.50;99.90
46458;DHT22;32155;54.076;12.092;2023-02-23T20:35:35;5.40;99.90
46458;DHT22;32155;54.076;12.092;2023-02-23T20:38:01;5.50;99.90
46458;DHT22;32155;54.076;12.092;2023-02-23T20:40:28;5.40;99.90
46458;DHT22;32155;54.076;12.092;2023-02-23T20:42:54;5.40;99.90
46458;DHT22;32155;54.076;12.092;2023-02-23T20:45:22;5.30;99.90
46458;DHT22;32155;54.076;12.092;2023-02-23T20:47:48;5.10;99.90
46458;DHT22;32155;54.076;12.092;2023-02-23T20:50:22;5.10;99.90
46458;DHT22;32155;54.076;12.092;2023-02-23T20:52:50;4.90;99.90
46458;DHT22;32155;54.076;12.092;2023-02-23T20:55:16;4.90;99.90
46458;DHT22;32155;54.076;12.092;2023-02-23T20:57:47;4.80;99.90
46458;DHT22;32155;54.076;12.092;2023-02-23T21:00:24;4.80;99.90
46458;DHT22;32155;54.076;12.092;2023-02-23T21:03:07;4.80;99.90
46458;DHT22;32155;54.076;12.092;2023-02-23T21:05:36;4.90;99.90
46458;DHT22;32155;54.076;12.092;2023-02-23T21:08:17;5.00;99.90
46458;DHT22;32155;54.076;12.092;2023-02-23T21:10:43;4.90;99.90
46458;DHT22;32155;54.076;12.092;2023-02-23T21:13:09;5.00;99.90
46458;DHT22;32155;54.076;12.092;2023-02-23T21:15:56;5.00;99.90
46458;DHT22;32155;54.076;12.092;2023-02-23T21:18:26;4.90;99.90
46458;DHT22;32155;54.076;12.092;2023-02-23T21:20:52;4.90;99.90
46458;DHT22;32155;54.076;12.092;2023-02-23T21:23:22;4.90;99.90
46458;DHT22;32155;54.076;12.092;2023-02-23T21:25:50;4.90;99.90
46458;DHT22;32155;54.076;12.092;2023-02-23T21:28:18;4.90;99.90
46458;DHT22;32155;54.076;12.092;2023-02-23T21:30:46;4.90;99.90
46458;DHT22;32155;54.076;12.092;2023-02-23T21:33:12;4.90;99.90
46458;DHT22;32155;54.076;12.092;2023-02-23T21:35:40;4.90;99.90
46458;DHT22;32155;54.076;12.092;2023-02-23T21:38:08;4.90;99.90
46458;DHT22;32155;54.076;12.092;2023-02-23T21:40:40;4.90;99.90
46458;DHT22;32155;54.076;12.092;2023-02-23T21:43:08;4.90;99.90
46458;DHT22;32155;54.076;12.092;2023-02-23T23:31:47;4.50;99.90
46458;DHT22;32155;54.076;12.092;2023-02-23T23:34:18;4.60;99.90
46458;DHT22;32155;54.076;12.092;2023-02-23T23:43:58;4.50;99.90
46458;DHT22;32155;54.076;12.092;2023-02-23T23:46:49;4.40;99.90
46458;DHT22;32155;54.076;12.092;2023-02-23T23:52:16;4.30;99.90
46458;DHT22;32155;54.076;12.092;2023-02-23T23:54:45;4.20;99.90
46458;DHT22;32155;54.076;12.092;2023-02-23T23:57:12;4.30;99.90
46458;DHT22;32155;54.076;12.092;2023-02-23T23:59:41;4.20;99.90
